Time;durP1;ratioP1;P1;durP2;ratioP2;P2;SDS_P1;SDS_P2;PMS_P1;PMS_P2;Temp;Humidity;BMP_temperature;BMP_pressure;BME280_temperature;BME280_humidity;BME280_pressure;Samples;Min_cycle;Max_cycle;Signal;HPM_P1;HPM_P2
2021/10/24 00:00:53;;;;;;;4.22;2.33;;;;;;;13.12;45.91;102500.75;4957383;28;20038;-58
2021/10/24 00:03:18;;;;;;;3.05;2.20;;;;;;;13.11;46.19;102509.81;4957494;28;20118;-59
2021/10/24 00:05:44;;;;;;;2.92;2.50;;;;;;;13.08;45.99;102507.34;4957809;28;20027;-59
2021/10/24 00:08:09;;;;;;;3.85;2.90;;;;;;;13.07;46.14;102505.59;4957620;28;20038;-59
2021/10/24 00:10:35;;;;;;;4.35;2.60;;;;;;;13.06;46.66;102509.25;4957213;28;20461;-58
2021/10/24 00:13:00;;;;;;;5.18;2.90;;;;;;;13.05;46.64;102506.63;4956975;28;20114;-58
2021/10/24 00:15:25;;;;;;;6.68;4.60;;;;;;;13.04;46.12;102504.91;4956153;29;20083;-58
2021/10/24 00:17:51;;;;;;;3.30;2.17;;;;;;;13.03;46.11;102508.56;4957563;28;20031;-59
2021/10/24 00:20:17;;;;;;;4.07;2.67;;;;;;;13.01;46.42;102505.97;4956979;28;20035;-59
2021/10/24 00:22:42;;;;;;;4.20;2.53;;;;;;;13.01;46.51;102503.28;4956300;29;20035;-58
2021/10/24 00:25:08;;;;;;;5.45;3.08;;;;;;;12.98;46.52;102511.56;4956733;28;20160;-59
2021/10/24 00:27:34;;;;;;;5.53;2.60;;;;;;;12.96;45.92;102509.94;4957105;28;20031;-59
2021/10/24 00:29:59;;;;;;;4.40;2.80;;;;;;;12.93;46.35;102502.94;4957335;28;20023;-59
2021/10/24 00:32:25;;;;;;;4.55;3.17;;;;;;;12.86;46.09;102490.88;4956159;29;20039;-58
2021/10/24 00:34:50;;;;;;;3.22;2.65;;;;;;;12.89;46.54;102503.25;4956006;29;20033;-59
2021/10/24 00:37:15;;;;;;;12.38;3.25;;;;;;;12.84;46.88;102492.81;4955719;29;20123;-58
2021/10/24 00:39:41;;;;;;;6.38;3.28;;;;;;;12.84;46.23;102495.50;4955934;29;20035;-59
2021/10/24 00:42:06;;;;;;;3.67;2.80;;;;;;;12.82;46.13;102502.81;4956959;28;20041;-58
2021/10/24 00:44:32;;;;;;;3.22;2.08;;;;;;;12.80;46.82;102502.91;4955472;29;20030;-58
2021/10/24 00:46:59;;;;;;;5.00;2.88;;;;;;;12.79;46.08;102492.25;4956744;28;20027;-60
2021/10/24 00:49:26;;;;;;;3.55;2.72;;;;;;;12.77;46.17;102491.50;4956548;28;20065;-58
2021/10/24 00:51:52;;;;;;;6.30;2.80;;;;;;;12.76;46.37;102497.81;4955467;29;20047;-59
2021/10/24 00:54:20;;;;;;;3.70;2.50;;;;;;;12.73;46.75;102492.69;4955337;29;20054;-58
2021/10/24 00:56:49;;;;;;;4.15;3.03;;;;;;;12.71;46.48;102486.53;4956667;28;20023;-58
2021/10/24 00:59:15;;;;;;;4.10;2.72;;;;;;;12.70;46.27;102482.13;4939448;28;20027;-59
2021/10/24 01:01:40;;;;;;;3.47;2.67;;;;;;;12.66;46.23;102476.09;4956209;28;20031;-58
2021/10/24 01:04:05;;;;;;;3.97;2.97;;;;;;;12.65;45.88;102476.16;4939217;29;20035;-58
2021/10/24 01:06:32;;;;;;;7.93;2.88;;;;;;;12.64;46.17;102477.16;4956502;28;20531;-58
2021/10/24 01:08:57;;;;;;;4.70;3.08;;;;;;;12.62;46.27;102477.25;4954966;29;20114;-58
2021/10/24 01:11:24;;;;;;;5.38;2.67;;;;;;;12.60;46.78;102479.19;4956319;28;20106;-58
2021/10/24 01:13:49;;;;;;;6.97;2.63;;;;;;;12.59;45.98;102479.28;4954838;29;20031;-59
2021/10/24 01:16:16;;;;;;;4.32;3.08;;;;;;;12.56;46.55;102479.50;4935886;29;20035;-58
2021/10/24 01:18:43;;;;;;;5.07;2.95;;;;;;;12.58;46.04;102480.25;4936834;29;20028;-58
2021/10/24 01:21:09;;;;;;;5.40;2.95;;;;;;;12.55;46.47;102470.56;4936808;29;20392;-58
2021/10/24 01:23:34;;;;;;;3.58;2.88;;;;;;;12.53;45.89;102466.25;4936886;29;20035;-58
2021/10/24 01:26:00;;;;;;;8.27;2.70;;;;;;;12.51;46.08;102466.34;4937088;29;20395;-58
2021/10/24 01:28:26;;;;;;;2.70;2.50;;;;;;;12.45;46.33;102463.22;4937089;29;20051;-58
2021/10/24 01:30:52;;;;;;;3.92;2.90;;;;;;;12.47;46.08;102458.59;4941826;29;20019;-59
2021/10/24 01:33:19;;;;;;;3.63;2.90;;;;;;;12.44;46.26;102461.47;4954628;29;20086;-58
2021/10/24 01:36:02;;;;;;;6.57;2.83;;;;;;;12.44;46.16;102450.72;4938706;29;20032;-58
2021/10/24 01:38:28;;;;;;;4.95;3.58;;;;;;;12.41;46.17;102457.16;4955608;28;20034;-58
2021/10/24 01:40:55;;;;;;;4.82;2.80;;;;;;;12.39;46.26;102444.78;4955867;28;20035;-58
2021/10/24 01:43:21;;;;;;;6.47;3.60;;;;;;;12.37;46.51;102444.88;4955944;28;20031;-58
2021/10/24 01:45:47;;;;;;;2.55;2.20;;;;;;;12.36;45.95;102439.63;4938699;29;20387;-58
2021/10/24 01:48:13;;;;;;;3.65;2.17;;;;;;;12.33;46.11;102437.13;4954795;29;20023;-58
2021/10/24 01:50:39;;;;;;;4.05;2.20;;;;;;;12.31;46.44;102439.06;4954369;29;20059;-58
2021/10/24 01:53:05;;;;;;;4.03;2.78;;;;;;;12.27;46.43;102433.03;4955772;28;20484;-58
2021/10/24 01:55:32;;;;;;;3.47;2.45;;;;;;;12.26;46.52;102434.84;4955527;29;20086;-59
2021/10/24 01:57:57;;;;;;;6.18;2.78;;;;;;;12.20;46.58;102420.94;4954871;29;20400;-58
2021/10/24 02:00:24;;;;;;;5.10;3.05;;;;;;;12.24;46.82;102417.97;4955713;28;20031;-59
2021/10/24 02:02:50;;;;;;;3.92;3.13;;;;;;;12.23;46.64;102431.50;4955820;28;20436;-58
2021/10/24 02:05:15;;;;;;;4.32;2.63;;;;;;;12.20;45.89;102412.88;4954564;29;20122;-58
2021/10/24 02:07:41;;;;;;;4.43;2.45;;;;;;;12.21;45.92;102417.31;4954566;29;20396;-58
2021/10/24 02:10:09;;;;;;;5.13;2.95;;;;;;;12.18;46.57;102417.50;4954168;29;20097;-58
2021/10/24 02:12:35;;;;;;;5.00;3.17;;;;;;;12.17;46.28;102422.00;4957787;28;20039;-58
2021/10/24 02:15:02;;;;;;;8.00;2.88;;;;;;;12.17;46.30;102413.94;4958452;29;20050;-59
2021/10/24 02:17:27;;;;;;;5.78;2.88;;;;;;;12.15;46.30;102413.19;4958997;29;20031;-58
2021/10/24 02:19:53;;;;;;;3.55;2.88;;;;;;;12.14;45.98;102410.63;4959288;28;20032;-58
2021/10/24 02:22:18;;;;;;;3.97;2.55;;;;;;;12.12;46.11;102399.97;4959264;28;20034;-58
2021/10/24 02:24:43;;;;;;;3.13;2.63;;;;;;;12.10;46.39;102409.09;4958073;29;20480;-58
2021/10/24 02:27:09;;;;;;;5.85;2.40;;;;;;;12.08;46.51;102406.53;4958041;29;20063;-58
2021/10/24 02:29:35;;;;;;;3.72;2.58;;;;;;;12.07;46.14;102404.78;4958305;29;20074;-58
2021/10/24 02:32:01;;;;;;;2.20;2.00;;;;;;;12.04;45.99;102404.97;4958108;29;20102;-58
2021/10/24 02:34:27;;;;;;;3.92;2.30;;;;;;;12.03;46.51;102397.88;4957782;28;20035;-58
2021/10/24 02:36:52;;;;;;;4.32;2.33;;;;;;;12.00;46.35;102395.41;4959155;28;20046;-59
2021/10/24 02:39:17;;;;;;;3.95;2.30;;;;;;;11.99;46.60;102404.41;4959077;28;20031;-58
2021/10/24 02:41:43;;;;;;;4.00;2.50;;;;;;;11.97;46.39;102392.06;4958964;28;20090;-58
2021/10/24 02:44:08;;;;;;;5.28;2.55;;;;;;;11.96;46.36;102385.81;4958999;28;20042;-58
2021/10/24 02:46:34;;;;;;;8.45;2.67;;;;;;;11.88;46.13;102377.41;4958862;28;20105;-58
2021/10/24 02:48:59;;;;;;;2.78;2.38;;;;;;;11.92;46.57;102394.19;4958804;28;20040;-58
2021/10/24 02:51:24;;;;;;;5.70;2.80;;;;;;;11.90;46.17;102386.22;4958504;28;20051;-58
2021/10/24 02:53:50;;;;;;;4.13;2.75;;;;;;;11.87;46.12;102381.03;4959215;29;20095;-58
2021/10/24 02:56:15;;;;;;;3.88;2.60;;;;;;;11.85;46.19;102374.91;4958846;29;20468;-58
2021/10/24 02:58:40;;;;;;;8.27;2.80;;;;;;;11.83;46.59;102374.16;4958457;29;20039;-58
2021/10/24 03:01:06;;;;;;;3.47;2.30;;;;;;;11.80;46.39;102374.34;4941742;29;20043;-58
2021/10/24 03:03:31;;;;;;;3.85;2.80;;;;;;;11.76;46.41;102364.75;4958727;29;20038;-58
2021/10/24 03:05:56;;;;;;;4.35;2.63;;;;;;;11.72;46.35;102355.22;4941211;29;20079;-58
2021/10/24 03:08:22;;;;;;;2.78;2.38;;;;;;;11.74;45.97;102361.31;4958618;29;20067;-58
2021/10/24 03:10:47;;;;;;;3.60;2.17;;;;;;;11.71;46.80;102358.84;4958486;29;20054;-58
2021/10/24 03:13:15;;;;;;;4.43;2.33;;;;;;;11.68;46.28;102354.50;4941100;29;20092;-58
2021/10/24 03:15:41;;;;;;;2.97;2.15;;;;;;;11.65;46.18;102343.09;4958525;29;20024;-58
2021/10/24 03:18:06;;;;;;;3.95;2.63;;;;;;;11.64;45.82;102349.44;4941176;29;20031;-58
2021/10/24 03:20:32;;;;;;;4.25;2.75;;;;;;;11.63;46.47;102361.13;4958061;29;20440;-58
2021/10/24 03:22:57;;;;;;;4.18;3.10;;;;;;;11.62;46.23;102348.66;4958412;28;20035;-58
2021/10/24 03:25:23;;;;;;;4.22;3.03;;;;;;;11.59;46.61;102343.47;4941027;29;20031;-58
2021/10/24 03:27:49;;;;;;;4.35;3.25;;;;;;;11.54;45.61;102340.22;4958032;29;20110;-58
2021/10/24 03:30:14;;;;;;;4.05;2.65;;;;;;;11.54;46.37;102359.03;4925538;29;20106;-58
2021/10/24 03:32:40;;;;;;;4.40;2.97;;;;;;;11.51;46.31;102343.13;4958350;29;20116;-58
2021/10/24 03:35:05;;;;;;;3.35;2.55;;;;;;;11.51;46.18;102356.53;4941001;29;20038;-58
2021/10/24 03:37:31;;;;;;;6.55;2.40;;;;;;;11.50;46.21;102357.50;4958470;29;20066;-58
2021/10/24 03:39:56;;;;;;;2.58;2.10;;;;;;;11.48;46.20;102351.34;4958082;29;20031;-58
2021/10/24 03:42:22;;;;;;;3.13;2.17;;;;;;;11.48;46.12;102354.03;4925138;29;20042;-58
2021/10/24 03:44:47;;;;;;;3.85;2.40;;;;;;;11.44;45.85;102352.53;4958006;29;20035;-58
2021/10/24 03:47:12;;;;;;;4.97;2.78;;;;;;;11.45;46.48;102354.22;4940619;29;20030;-58
2021/10/24 03:49:38;;;;;;;2.72;2.05;;;;;;;11.44;46.09;102355.22;4957495;29;20031;-58
2021/10/24 03:52:03;;;;;;;3.67;2.63;;;;;;;11.41;46.45;102355.41;4957685;29;20508;-58
2021/10/24 03:54:29;;;;;;;3.17;2.47;;;;;;;11.40;46.24;102359.03;4957763;29;20115;-58
2021/10/24 03:56:54;;;;;;;3.08;2.58;;;;;;;11.34;45.65;102343.31;4957870;29;20480;-58
2021/10/24 03:59:20;;;;;;;3.05;2.05;;;;;;;11.34;46.24;102351.38;4957477;29;20031;-58
2021/10/24 04:01:45;;;;;;;2.80;2.00;;;;;;;11.36;46.18;102353.00;4940430;29;20042;-58
2021/10/24 04:04:11;;;;;;;3.30;1.90;;;;;;;11.35;46.12;102351.28;4940206;29;20062;-58
2021/10/24 04:06:37;;;;;;;4.10;2.25;;;;;;;11.32;46.61;102350.59;4957661;29;20061;-58
2021/10/24 04:09:02;;;;;;;2.63;2.08;;;;;;;11.32;46.02;102355.97;4924796;29;20027;-58
2021/10/24 04:11:27;;;;;;;2.22;1.92;;;;;;;11.30;45.96;102340.00;4939930;29;20015;-58
2021/10/24 04:13:53;;;;;;;2.35;2.05;;;;;;;11.27;46.30;102344.69;4957573;29;20035;-58
2021/10/24 04:16:18;;;;;;;3.47;2.13;;;;;;;11.26;46.21;102345.63;4957443;29;20536;-58
2021/10/24 04:18:44;;;;;;;3.38;2.40;;;;;;;11.26;46.11;102351.00;4939907;29;20023;-58
2021/10/24 04:21:09;;;;;;;3.22;2.22;;;;;;;11.24;46.16;102347.56;4956987;29;20059;-58
2021/10/24 04:23:34;;;;;;;6.95;2.50;;;;;;;11.17;46.09;102339.00;4957066;29;20499;-58
2021/10/24 04:26:00;;;;;;;2.97;2.30;;;;;;;11.18;46.01;102337.19;4956896;29;20031;-58
2021/10/24 04:28:25;;;;;;;2.70;2.35;;;;;;;11.19;46.06;102338.94;4957987;28;20043;-58
2021/10/24 04:30:51;;;;;;;2.88;2.00;;;;;;;11.17;46.23;102336.34;4940354;29;20047;-58
2021/10/24 04:33:16;;;;;;;2.05;1.63;;;;;;;11.15;46.24;102332.91;4939812;29;20027;-58
2021/10/24 04:35:42;;;;;;;2.63;2.15;;;;;;;11.14;46.26;102333.00;4956336;28;20078;-58
2021/10/24 04:38:07;;;;;;;3.78;2.20;;;;;;;11.11;46.15;102332.22;4956738;29;20039;-58
2021/10/24 04:40:32;;;;;;;5.32;3.22;;;;;;;11.13;46.25;102328.59;4939612;29;20034;-58
2021/10/24 04:42:58;;;;;;;3.38;2.08;;;;;;;11.11;46.49;102326.84;4956861;29;20034;-58
2021/10/24 04:45:23;;;;;;;4.40;2.10;;;;;;;11.10;46.12;102319.78;4957054;29;20066;-58
2021/10/24 04:47:48;;;;;;;3.95;2.40;;;;;;;11.13;46.32;102312.50;4957080;29;20506;-58
2021/10/24 04:50:14;;;;;;;3.17;2.45;;;;;;;11.14;46.40;102316.91;4956605;29;20062;-58
2021/10/24 04:52:40;;;;;;;2.33;1.95;;;;;;;11.15;46.17;102321.28;4956596;29;20027;-58
2021/10/24 04:55:06;;;;;;;3.75;1.80;;;;;;;11.14;46.18;102319.59;4956893;29;20038;-58
2021/10/24 04:57:31;;;;;;;4.32;2.80;;;;;;;11.14;46.41;102314.22;4939652;29;20033;-58
2021/10/24 04:59:57;;;;;;;6.80;2.50;;;;;;;11.13;45.96;102312.50;4939431;29;20031;-58
2021/10/24 05:02:22;;;;;;;1.70;1.60;;;;;;;11.11;46.04;102301.84;4956550;29;20059;-58
2021/10/24 05:04:48;;;;;;;3.40;2.10;;;;;;;11.08;45.95;102300.22;4956478;29;20019;-58
2021/10/24 05:07:13;;;;;;;4.60;2.08;;;;;;;11.10;46.26;102306.38;4939356;29;20031;-58
2021/10/24 05:09:38;;;;;;;3.92;2.03;;;;;;;11.08;45.56;102297.53;4956141;29;20130;-58
2021/10/24 05:12:04;;;;;;;1.55;1.45;;;;;;;11.06;46.34;102298.59;4956120;29;20031;-58
2021/10/24 05:14:29;;;;;;;2.90;2.00;;;;;;;11.05;46.00;102296.91;4956400;29;20123;-58
2021/10/24 05:16:55;;;;;;;2.47;1.92;;;;;;;11.02;46.55;102297.97;4956378;29;20035;-59
2021/10/24 05:19:20;;;;;;;4.45;2.35;;;;;;;11.02;46.00;102295.28;4956714;29;20027;-58
2021/10/24 05:21:46;;;;;;;2.30;2.05;;;;;;;11.01;46.19;102298.91;4956228;29;20070;-58
2021/10/24 05:24:11;;;;;;;2.55;1.70;;;;;;;10.98;46.44;102293.72;4956142;29;20031;-58
2021/10/24 05:26:36;;;;;;;3.15;2.13;;;;;;;10.95;46.38;102285.88;4956317;29;20066;-58
2021/10/24 05:29:02;;;;;;;2.83;1.67;;;;;;;10.87;46.19;102273.91;4956175;29;20035;-58
2021/10/24 05:31:28;;;;;;;4.82;2.30;;;;;;;10.91;46.10;102281.69;4956400;29;20027;-58
2021/10/24 05:33:53;;;;;;;3.45;2.10;;;;;;;10.90;46.18;102274.59;4939015;29;20050;-58
2021/10/24 05:36:19;;;;;;;3.13;1.83;;;;;;;10.88;45.81;102276.50;4939075;29;20046;-58
2021/10/24 05:38:44;;;;;;;2.78;2.25;;;;;;;10.86;46.41;102274.88;4923243;29;20126;-58
2021/10/24 05:41:10;;;;;;;3.80;2.53;;;;;;;10.86;46.44;102278.41;4955978;29;20035;-58
2021/10/24 05:43:35;;;;;;;6.85;2.22;;;;;;;10.84;46.11;102288.34;4938755;29;20049;-58
2021/10/24 05:46:00;;;;;;;2.75;1.85;;;;;;;10.84;46.36;102280.31;4938408;29;20532;-58
2021/10/24 05:48:26;;;;;;;2.60;2.03;;;;;;;10.83;46.42;102275.06;4955825;29;20113;-58
2021/10/24 05:50:51;;;;;;;3.53;1.92;;;;;;;10.78;46.48;102269.97;4941709;29;20397;-58
2021/10/24 05:53:16;;;;;;;2.92;1.90;;;;;;;10.80;46.05;102280.63;4956024;28;20042;-58
2021/10/24 05:55:42;;;;;;;4.85;3.15;;;;;;;10.78;45.85;102272.66;4955645;28;20122;-58
2021/10/24 05:58:07;;;;;;;2.65;2.03;;;;;;;10.78;46.62;102275.34;4955782;28;20027;-58
2021/10/24 06:00:33;;;;;;;2.63;1.98;;;;;;;10.76;46.75;102277.25;4954698;29;20028;-58
2021/10/24 06:03:05;;;;;;;3.03;1.98;;;;;;;10.75;46.16;102270.16;4956048;28;20038;-58
2021/10/24 06:05:34;;;;;;;3.80;2.50;;;;;;;10.75;46.38;102263.97;4956260;28;20400;-58
2021/10/24 06:08:02;;;;;;;3.95;2.42;;;;;;;10.75;45.89;102263.97;4956275;28;20251;-58
2021/10/24 06:10:31;;;;;;;4.18;2.40;;;;;;;10.74;46.00;102263.09;4969211;28;20408;-58
2021/10/24 06:12:57;;;;;;;4.32;2.40;;;;;;;10.70;46.53;102260.69;4954812;29;20488;-57
2021/10/24 06:15:24;;;;;;;6.15;2.60;;;;;;;10.69;45.98;102262.50;4954734;29;20074;-58
2021/10/24 06:17:49;;;;;;;3.85;2.50;;;;;;;10.71;46.11;102257.94;4955858;28;20037;-59
2021/10/24 06:20:16;;;;;;;6.70;2.50;;;;;;;10.71;45.80;102268.66;4954790;29;20031;-58
2021/10/24 06:22:42;;;;;;;5.63;2.42;;;;;;;10.71;46.74;102257.94;4954609;29;20031;-59
2021/10/24 06:25:09;;;;;;;3.72;2.15;;;;;;;10.69;46.38;102259.81;4954389;29;20032;-58
2021/10/24 06:27:38;;;;;;;3.65;2.40;;;;;;;10.70;46.20;102261.56;4954729;29;20054;-58
2021/10/24 06:30:09;;;;;;;7.97;2.13;;;;;;;10.71;46.47;102268.66;4955500;28;20023;-58
2021/10/24 06:32:35;;;;;;;3.45;2.25;;;;;;;10.71;46.15;102263.28;4955423;28;20066;-58
2021/10/24 06:35:06;;;;;;;3.30;2.17;;;;;;;10.73;46.42;102260.50;4955243;28;20020;-57
2021/10/24 06:37:39;;;;;;;3.95;2.00;;;;;;;10.75;46.11;102264.81;4955237;28;20032;-58
2021/10/24 06:40:05;;;;;;;6.38;2.08;;;;;;;10.75;46.26;102259.44;4955225;28;20031;-58
2021/10/24 06:42:31;;;;;;;2.67;2.05;;;;;;;10.77;46.38;102249.50;4938381;29;20035;-58
2021/10/24 06:44:56;;;;;;;5.65;2.30;;;;;;;10.85;46.36;102249.88;4954008;29;20126;-58
2021/10/24 06:47:22;;;;;;;14.00;2.40;;;;;;;10.96;46.26;102247.41;4955192;28;20464;-59
2021/10/24 06:49:47;;;;;;;3.58;2.17;;;;;;;11.02;46.49;102244.34;4955031;28;20032;-58
2021/10/24 06:52:13;;;;;;;3.03;2.25;;;;;;;11.16;46.08;102242.59;4955479;28;20109;-58
2021/10/24 06:54:38;;;;;;;4.82;2.97;;;;;;;11.26;45.70;102246.38;4955303;29;20043;-58
2021/10/24 06:57:03;;;;;;;5.68;2.42;;;;;;;11.37;46.04;102251.91;4955195;28;20058;-58
2021/10/24 06:59:29;;;;;;;11.38;2.85;;;;;;;11.48;46.21;102244.91;4958285;29;20031;-58
2021/10/24 07:01:54;;;;;;;7.60;3.22;;;;;;;11.62;46.20;102236.81;4941603;29;20042;-58
2021/10/24 07:04:20;;;;;;;4.45;2.75;;;;;;;11.75;45.84;102231.53;4958893;29;20038;-58
2021/10/24 07:06:46;;;;;;;7.38;2.92;;;;;;;11.88;46.24;102237.78;4958808;29;20090;-58
2021/10/24 07:09:11;;;;;;;7.68;3.55;;;;;;;12.01;46.06;102238.66;4958553;29;20408;-58
2021/10/24 07:11:36;;;;;;;9.20;3.83;;;;;;;12.12;45.83;102244.19;4958600;29;20023;-58
2021/10/24 07:14:02;;;;;;;7.45;4.63;;;;;;;12.27;46.01;102242.28;4941321;29;20033;-58
2021/10/24 07:16:27;;;;;;;7.10;4.20;;;;;;;12.36;45.84;102235.41;4958236;29;20063;-58
2021/10/24 07:18:52;;;;;;;9.63;4.55;;;;;;;12.52;46.54;102238.75;4940807;29;20480;-58
2021/10/24 07:21:18;;;;;;;9.45;5.10;;;;;;;12.61;46.95;102232.72;4957944;29;20027;-59
2021/10/24 07:23:43;;;;;;;9.77;4.75;;;;;;;12.72;45.67;102231.00;4958074;29;20059;-58
2021/10/24 07:26:09;;;;;;;7.15;5.05;;;;;;;12.84;46.79;102230.13;4957753;29;20155;-58
2021/10/24 07:28:34;;;;;;;6.95;4.38;;;;;;;12.98;46.54;102226.44;4958122;29;20046;-58
2021/10/24 07:30:59;;;;;;;10.65;4.60;;;;;;;13.09;46.71;102226.56;4957861;29;20027;-58
2021/10/24 07:33:25;;;;;;;10.73;4.45;;;;;;;13.23;46.09;102230.97;4957992;29;20457;-58
2021/10/24 07:35:50;;;;;;;11.05;4.03;;;;;;;13.34;45.73;102226.47;4957703;29;20031;-58
2021/10/24 07:38:16;;;;;;;7.90;4.07;;;;;;;13.47;45.87;102233.66;4940547;29;20035;-58
2021/10/24 07:40:43;;;;;;;5.90;3.50;;;;;;;13.63;46.40;102228.84;4957893;29;20047;-58
2021/10/24 07:43:09;;;;;;;4.68;3.83;;;;;;;13.77;45.80;102232.25;4957742;29;20491;-58
2021/10/24 07:45:34;;;;;;;7.28;3.30;;;;;;;13.90;45.73;102218.72;4957835;29;20031;-58
2021/10/24 07:48:00;;;;;;;10.48;3.20;;;;;;;14.07;45.34;102223.66;4957394;29;20031;-58
2021/10/24 07:50:28;;;;;;;7.05;3.17;;;;;;;14.23;45.15;102228.75;4957250;29;20420;-58
2021/10/24 07:52:54;;;;;;;6.78;3.38;;;;;;;14.37;45.74;102218.66;4940979;29;20027;-58
2021/10/24 07:55:19;;;;;;;8.70;3.25;;;;;;;14.59;46.43;102225.91;4924590;29;20027;-58
2021/10/24 07:57:44;;;;;;;6.85;3.20;;;;;;;14.76;46.20;102222.75;4924476;29;20030;-59
2021/10/24 08:00:10;;;;;;;7.15;3.50;;;;;;;14.93;45.04;102224.09;4957162;29;20071;-58
2021/10/24 08:02:36;;;;;;;7.53;3.28;;;;;;;15.12;45.77;102216.22;4940228;29;20029;-58
2021/10/24 08:05:02;;;;;;;5.70;2.80;;;;;;;15.29;45.44;102213.00;4940219;29;20495;-58
2021/10/24 08:07:27;;;;;;;7.13;2.88;;;;;;;15.48;44.62;102215.94;4957557;29;20416;-59
2021/10/24 08:09:53;;;;;;;7.88;3.28;;;;;;;15.64;46.09;102205.56;4956638;28;20035;-58
2021/10/24 08:12:18;;;;;;;6.25;3.08;;;;;;;15.82;45.34;102196.91;4957587;29;20374;-59
2021/10/24 08:14:43;;;;;;;5.43;3.38;;;;;;;15.94;44.25;102190.47;4957162;29;20038;-59
2021/10/24 08:17:09;;;;;;;5.80;2.72;;;;;;;16.16;44.10;102196.59;4957640;29;20023;-59
2021/10/24 08:19:35;;;;;;;7.03;3.53;;;;;;;16.36;44.90;102192.16;4957501;29;20053;-59
2021/10/24 08:22:01;;;;;;;4.82;3.30;;;;;;;16.54;43.90;102190.63;4940031;29;20028;-59
2021/10/24 08:24:27;;;;;;;7.90;3.10;;;;;;;16.78;44.20;102188.44;4940280;29;20034;-59
2021/10/24 08:26:54;;;;;;;5.22;3.13;;;;;;;17.01;44.00;102188.25;4957550;29;20469;-59
2021/10/24 08:29:20;;;;;;;5.05;2.70;;;;;;;17.22;44.55;102181.78;4957458;29;20027;-59
2021/10/24 08:31:50;;;;;;;4.97;3.05;;;;;;;17.45;43.84;102182.34;4957006;29;20472;-59
2021/10/24 08:34:17;;;;;;;3.72;2.30;;;;;;;17.66;44.13;102172.31;4957474;29;20051;-59
2021/10/24 08:36:43;;;;;;;7.00;2.88;;;;;;;17.86;43.40;102176.72;4940144;29;20495;-59
2021/10/24 08:39:09;;;;;;;4.18;2.42;;;;;;;18.06;43.05;102171.28;4957126;29;20031;-60
2021/10/24 08:41:36;;;;;;;5.53;2.28;;;;;;;18.25;43.89;102169.41;4956960;28;20041;-59
2021/10/24 08:44:02;;;;;;;6.85;2.40;;;;;;;18.46;43.04;102163.75;4940054;29;20117;-60
2021/10/24 08:46:28;;;;;;;4.80;2.53;;;;;;;18.70;43.16;102150.56;4940186;29;20027;-60
2021/10/24 08:48:55;;;;;;;3.75;2.08;;;;;;;18.95;42.50;102159.88;4957742;29;20029;-61
2021/10/24 08:51:21;;;;;;;3.13;2.25;;;;;;;19.19;43.02;102155.59;4957128;29;20551;-59
2021/10/24 08:53:48;;;;;;;3.42;2.42;;;;;;;19.44;42.81;102155.88;4957197;29;20122;-59
2021/10/24 08:56:18;;;;;;;9.10;2.55;;;;;;;19.69;42.10;102149.66;4940295;29;20035;-59
2021/10/24 08:58:45;;;;;;;4.65;2.33;;;;;;;19.92;42.06;102147.31;4939958;29;20035;-59
2021/10/24 09:01:11;;;;;;;5.68;2.88;;;;;;;20.14;41.50;102144.94;4939680;29;20031;-60
2021/10/24 09:03:37;;;;;;;7.45;2.47;;;;;;;20.36;41.45;102142.72;4956839;29;20395;-60
2021/10/24 09:06:05;;;;;;;5.88;2.72;;;;;;;20.61;41.48;102147.31;4956600;29;20064;-59
2021/10/24 09:08:31;;;;;;;6.65;2.10;;;;;;;20.98;40.60;102141.53;4957286;29;20093;-60
2021/10/24 09:11:01;;;;;;;3.45;2.13;;;;;;;21.49;40.72;102141.34;4956215;29;20027;-61
2021/10/24 09:13:32;;;;;;;4.85;1.95;;;;;;;23.52;37.48;102137.13;4955829;29;20594;-60
2021/10/24 09:15:57;;;;;;;6.43;1.90;;;;;;;23.56;36.54;102127.53;4956101;29;20027;-61
2021/10/24 09:18:45;;;;;;;7.38;2.92;;;;;;;23.30;37.68;102114.16;4955731;29;20503;-60
2021/10/24 09:21:17;;;;;;;3.88;2.25;;;;;;;23.36;37.27;102121.66;4955386;28;20057;-60
2021/10/24 09:23:51;;;;;;;3.30;2.08;;;;;;;23.53;36.88;102115.06;4955633;29;20144;-61
2021/10/24 09:26:23;;;;;;;8.20;2.30;;;;;;;23.86;36.66;102121.13;4955738;29;20035;-60
2021/10/24 09:29:00;;;;;;;2.72;1.52;;;;;;;24.15;36.31;102109.41;4955703;29;20028;-61
2021/10/24 09:31:30;;;;;;;7.22;2.47;;;;;;;24.46;36.31;102107.34;4938745;29;20511;-60
2021/10/24 09:33:56;;;;;;;3.72;2.00;;;;;;;24.80;36.58;102102.19;4955452;29;20031;-60
2021/10/24 09:36:27;;;;;;;6.72;2.25;;;;;;;25.18;36.19;102105.56;4955570;29;20030;-60
2021/10/24 09:39:07;;;;;;;2.40;2.20;;;;;;;25.66;35.46;102104.00;4955415;29;20058;-60
2021/10/24 09:41:32;;;;;;;5.63;2.55;;;;;;;25.98;35.07;102108.97;4955539;29;20543;-60
2021/10/24 09:44:15;;;;;;;3.38;2.05;;;;;;;26.29;35.05;102096.75;4955345;29;20059;-60
2021/10/24 09:46:56;;;;;;;6.75;1.95;;;;;;;26.56;34.38;102098.59;4938203;29;20023;-60
2021/10/24 09:49:26;;;;;;;4.80;2.30;;;;;;;26.84;34.48;102093.03;4938138;29;20066;-60
2021/10/24 09:51:55;;;;;;;5.72;1.92;;;;;;;27.09;33.86;102094.19;4955118;29;20102;-61
2021/10/24 09:54:23;;;;;;;3.38;2.05;;;;;;;27.30;33.05;102087.72;4938171;29;20102;-61
2021/10/24 09:56:49;;;;;;;5.65;2.10;;;;;;;27.52;34.04;102089.25;4955283;29;20023;-60
2021/10/24 09:59:17;;;;;;;3.65;2.22;;;;;;;27.71;33.09;102083.78;4955424;29;20034;-61
2021/10/24 10:01:46;;;;;;;5.80;2.20;;;;;;;27.88;32.98;102078.69;4955349;29;20058;-61
2021/10/24 10:04:12;;;;;;;4.35;2.05;;;;;;;28.04;32.33;102075.53;4938438;29;20027;-60
2021/10/24 10:06:38;;;;;;;2.50;1.98;;;;;;;28.08;33.10;102070.44;4955165;29;20038;-60
2021/10/24 10:09:04;;;;;;;8.02;2.50;;;;;;;28.27;32.43;102064.88;4955217;29;20373;-60
2021/10/24 10:11:44;;;;;;;6.03;2.10;;;;;;;28.50;31.58;102069.06;4938167;29;20038;-60
2021/10/24 10:14:15;;;;;;;10.15;2.20;;;;;;;28.64;31.73;102065.25;4955185;29;20114;-60
2021/10/24 10:16:43;;;;;;;3.25;2.25;;;;;;;28.79;31.86;102063.03;4955120;29;20063;-60
2021/10/24 10:19:10;;;;;;;4.72;2.00;;;;;;;28.95;31.51;102067.22;4955191;29;20400;-61
2021/10/24 10:21:38;;;;;;;2.67;1.65;;;;;;;29.09;31.82;102069.66;4937729;29;20031;-60
2021/10/24 10:24:08;;;;;;;8.25;1.70;;;;;;;29.22;31.32;102074.31;4954980;29;20051;-60
2021/10/24 10:26:37;;;;;;;3.00;1.73;;;;;;;29.33;31.01;102068.09;4955350;29;20046;-60
2021/10/24 10:29:10;;;;;;;3.42;1.95;;;;;;;29.25;30.27;102063.69;4954950;29;20023;-60
2021/10/24 10:31:37;;;;;;;2.47;1.75;;;;;;;29.25;30.20;102063.69;4954915;28;20023;-58
2021/10/24 10:34:08;;;;;;;4.57;1.75;;;;;;;29.36;30.88;102060.22;4957587;29;20034;-58
2021/10/24 10:36:47;;;;;;;3.88;1.75;;;;;;;29.46;30.60;102067.97;4958931;29;20504;-58
2021/10/24 10:39:30;;;;;;;5.57;1.95;;;;;;;29.54;30.80;102066.88;4958763;29;20031;-58
2021/10/24 10:41:57;;;;;;;4.57;1.83;;;;;;;29.60;30.26;102057.69;4958549;29;20043;-58
2021/10/24 10:44:22;;;;;;;4.53;1.90;;;;;;;29.72;30.27;102053.13;4958377;29;20034;-58
2021/10/24 10:46:47;;;;;;;3.85;2.13;;;;;;;29.80;30.08;102066.69;4958373;29;20027;-58
2021/10/24 10:49:21;;;;;;;4.70;1.95;;;;;;;29.90;29.97;102058.75;4958162;29;20504;-58
2021/10/24 10:51:48;;;;;;;4.50;2.72;;;;;;;29.96;30.11;102066.09;4958055;29;20059;-58
2021/10/24 10:54:14;;;;;;;3.92;2.28;;;;;;;30.03;30.15;102066.91;4940865;29;20020;-58
2021/10/24 10:56:58;;;;;;;2.88;1.55;;;;;;;30.16;29.09;102064.00;4958241;29;20491;-58
2021/10/24 10:59:29;;;;;;;3.35;1.77;;;;;;;30.23;29.60;102053.75;4957951;29;20035;-58
2021/10/24 11:02:04;;;;;;;2.72;1.40;;;;;;;30.31;29.48;102056.19;4957986;29;20099;-58
2021/10/24 11:04:47;;;;;;;3.05;1.73;;;;;;;30.43;29.60;102051.59;4940622;29;20035;-58
2021/10/24 11:07:42;;;;;;;2.03;1.75;;;;;;;30.56;29.11;102043.16;4958516;29;20035;-58
2021/10/24 11:10:12;;;;;;;3.78;1.73;;;;;;;30.64;28.80;102049.44;4958024;29;20030;-58
2021/10/24 11:12:40;;;;;;;2.25;1.95;;;;;;;30.71;28.76;102042.75;4940600;29;20034;-58
2021/10/24 11:15:09;;;;;;;4.40;1.55;;;;;;;30.72;28.47;102038.91;4940798;29;20110;-58
2021/10/24 11:17:40;;;;;;;8.38;1.98;;;;;;;30.73;28.38;102040.63;4957841;29;20050;-59
2021/10/24 11:20:16;;;;;;;1.70;1.50;;;;;;;30.74;28.32;102045.03;4957719;29;20038;-58
2021/10/24 11:22:52;;;;;;;3.10;1.50;;;;;;;30.74;28.48;102038.69;4957810;29;20090;-58